EDT,Max TemperatureF,Mean TemperatureF,Min TemperatureF,Max Dew PointF,MeanDew PointF,Min DewpointF,Max Humidity, Mean Humidity, Min Humidity, Max Sea Level PressureIn, Mean Sea Level PressureIn, Min Sea Level PressureIn, Max VisibilityMiles, Mean VisibilityMiles, Min VisibilityMiles, Max Wind SpeedMPH, Mean Wind SpeedMPH, Max Gust SpeedMPH,PrecipitationIn, CloudCover, Events, WindDirDegrees
2014-4-1,73,63,53,38,31,18,50,33,13,30.08,29.95,29.89,10,10,10,31,14,40,0.00,2,,214
2014-4-2,55,48,42,49,43,32,94,83,44,30.17,30.11,30.05,10,9,3,12,5,,0.18,7,Rain,51
2014-4-3,62,54,45,58,50,44,100,92,79,30.06,29.87,29.68,10,7,2,15,8,,1.11,8,Rain-Thunderstorm,105
2014-4-4,62,52,40,58,49,28,100,85,61,29.96,29.70,29.49,10,10,4,28,11,43,0.60,8,Fog-Rain-Thunderstorm,213
2014-4-5,49,42,35,31,27,24,81,60,45,30.22,30.14,29.96,10,10,10,24,14,31,0.00,5,,302
2014-4-6,57,42,28,37,29,26,92,59,33,30.23,30.12,29.97,10,10,10,13,4,17,0.00,1,,62
2014-4-7,52,48,43,52,45,31,100,87,55,29.96,29.55,29.35,10,7,2,17,6,23,0.58,7,Rain-Thunderstorm,33
2014-4-8,61,51,42,44,40,33,100,76,35,29.83,29.66,29.45,10,9,4,14,10,22,0.04,5,Rain,279
2014-4-9,60,48,39,40,34,30,80,59,35,30.06,29.99,29.84,10,10,10,13,7,17,0.00,2,,295
2014-4-10,74,58,42,52,38,32,72,47,28,30.04,29.94,29.82,10,10,10,30,13,41,0.00,3,Rain,198
2014-4-11,65,56,46,55,52,42,100,83,47,30.12,30.00,29.93,10,9,4,17,7,36,0.32,6,Rain-Thunderstorm,295
2014-4-12,75,58,40,52,46,38,95,66,40,30.17,30.06,29.88,10,10,2,20,5,25,0.00,0,,167
2014-4-13,79,70,62,56,51,41,68,49,29,29.92,29.85,29.74,10,10,10,29,15,36,0.00,3,,191
2014-4-14,72,56,39,59,52,36,93,77,43,29.78,29.70,29.63,10,9,5,37,20,52,0.34,6,Rain,234
2014-4-15,36,33,30,32,24,13,100,73,44,30.29,29.99,29.79,10,8,1,20,15,29,0.11,7,Rain-Snow,310
2014-4-16,49,36,23,24,19,11,82,49,34,30.47,30.38,30.30,10,10,10,15,6,17,0.00,0,,103
2014-4-17,67,52,35,37,30,22,63,42,28,30.37,30.31,30.26,10,10,10,17,8,28,0.00,0,,154
2014-4-18,68,54,40,43,38,35,90,58,32,30.32,30.27,30.22,10,10,8,9,3,,0.00,1,,360
2014-4-19,65,54,43,42,37,32,85,56,30,30.37,30.30,30.26,10,10,10,15,8,20,0.00,0,,26
2014-4-20,75,58,40,45,37,32,76,49,26,30.31,30.23,30.12,10,10,10,10,4,,0.00,0,,96
2014-4-21,76,60,45,53,45,41,87,59,32,30.11,30.00,29.86,10,10,4,15,3,18,0.00,4,,237
2014-4-22,64,55,45,57,48,30,94,70,30,29.97,29.82,29.76,10,9,5,21,9,31,0.01,4,Rain,274
2014-4-23,58,48,37,34,32,29,73,56,37,30.12,30.08,29.97,10,10,4,13,8,,0.00,0,,352
2014-4-24,63,54,44,32,24,16,58,35,18,30.16,30.03,29.81,10,10,10,16,8,,0.00,5,,99
2014-4-25,62,54,47,56,46,23,94,73,27,29.91,29.73,29.64,10,9,5,23,9,30,0.10,6,Rain,241
2014-4-26,75,60,46,48,43,36,79,56,35,30.01,29.92,29.87,10,10,10,15,8,22,0.00,1,,262
2014-4-27,70,54,40,40,37,34,78,52,34,30.10,30.01,29.91,10,10,10,16,11,21,0.00,1,,64
2014-4-28,62,53,47,58,47,33,96,79,43,29.93,29.78,29.68,10,9,2,15,8,,0.70,7,Rain-Thunderstorm,75
2014-4-29,76,64,53,63,56,44,100,81,36,29.91,29.68,29.54,10,9,2,31,13,40,0.60,7,Rain-Thunderstorm,177
2014-4-30,70,60,51,55,51,44,94,80,49,29.89,29.81,29.75,10,10,7,17,10,26,0.08,7,Rain,170